sensor_id;sensor_type;location;lat;lon;timestamp;pressure;altitude;pressure_sealevel;temperature;humidity
16120;BME280;12670;53.502;10.252;2023-03-25T00:00:15;99635.53;;;9.68;100.00
16120;BME280;12670;53.502;10.252;2023-03-25T00:03:19;99633.13;;;9.63;100.00
16120;BME280;12670;53.502;10.252;2023-03-25T00:06:22;99633.81;;;9.51;100.00
16120;BME280;12670;53.502;10.252;2023-03-25T00:09:26;99634.66;;;9.67;100.00
16120;BME280;12670;53.502;10.252;2023-03-25T00:12:29;99635.59;;;9.50;100.00
16120;BME280;12670;53.502;10.252;2023-03-25T00:15:32;99631.06;;;9.68;100.00
16120;BME280;12670;53.502;10.252;2023-03-25T00:18:35;99630.22;;;9.52;100.00
16120;BME280;12670;53.502;10.252;2023-03-25T00:21:37;99635.94;;;9.44;100.00
16120;BME280;12670;53.502;10.252;2023-03-25T00:24:42;99629.75;;;9.44;100.00
16120;BME280;12670;53.502;10.252;2023-03-25T00:27:47;99617.38;;;9.60;100.00
16120;BME280;12670;53.502;10.252;2023-03-25T00:30:51;99614.41;;;9.66;100.00
16120;BME280;12670;53.502;10.252;2023-03-25T00:33:54;99614.22;;;9.53;100.00
16120;BME280;12670;53.502;10.252;2023-03-25T00:36:58;99616.94;;;9.36;100.00
16120;BME280;12670;53.502;10.252;2023-03-25T00:40:02;99610.19;;;9.30;100.00
16120;BME280;12670;53.502;10.252;2023-03-25T00:43:06;99609.53;;;9.27;100.00
16120;BME280;12670;53.502;10.252;2023-03-25T00:46:08;99620.78;;;9.30;100.00
16120;BME280;12670;53.502;10.252;2023-03-25T00:49:11;99607.16;;;9.38;100.00
16120;BME280;12670;53.502;10.252;2023-03-25T00:52:14;99606.94;;;9.25;100.00
16120;BME280;12670;53.502;10.252;2023-03-25T00:55:20;99602.38;;;9.45;100.00
16120;BME280;12670;53.502;10.252;2023-03-25T00:58:22;99601.84;;;9.54;100.00
16120;BME280;12670;53.502;10.252;2023-03-25T01:01:27;99607.41;;;9.65;100.00
16120;BME280;12670;53.502;10.252;2023-03-25T01:04:29;99607.16;;;9.38;100.00
16120;BME280;12670;53.502;10.252;2023-03-25T01:07:32;99612.84;;;9.30;100.00
16120;BME280;12670;53.502;10.252;2023-03-25T01:10:37;99612.44;;;9.54;100.00
16120;BME280;12670;53.502;10.252;2023-03-25T01:13:39;99611.66;;;9.36;100.00
16120;BME280;12670;53.502;10.252;2023-03-25T01:16:42;99607.66;;;9.45;100.00
16120;BME280;12670;53.502;10.252;2023-03-25T01:19:45;99600.31;;;9.34;100.00
16120;BME280;12670;53.502;10.252;2023-03-25T01:22:48;99604.94;;;9.46;100.00
16120;BME280;12670;53.502;10.252;2023-03-25T01:25:52;99600.59;;;9.45;100.00
16120;BME280;12670;53.502;10.252;2023-03-25T01:28:55;99607.31;;;9.51;100.00
16120;BME280;12670;53.502;10.252;2023-03-25T01:31:57;99610.31;;;9.76;100.00
16120;BME280;12670;53.502;10.252;2023-03-25T01:35:00;99595.69;;;9.85;100.00
16120;BME280;12670;53.502;10.252;2023-03-25T01:38:04;99598.44;;;9.52;100.00
16120;BME280;12670;53.502;10.252;2023-03-25T01:41:09;99590.91;;;9.60;100.00
16120;BME280;12670;53.502;10.252;2023-03-25T01:47:52;99587.31;;;9.61;100.00
16120;BME280;12670;53.502;10.252;2023-03-25T01:51:01;99593.16;;;9.52;100.00
16120;BME280;12670;53.502;10.252;2023-03-25T01:54:06;99583.84;;;9.45;100.00
16120;BME280;12670;53.502;10.252;2023-03-25T01:57:12;99584.91;;;9.72;100.00
16120;BME280;12670;53.502;10.252;2023-03-25T02:00:18;99575.88;;;9.76;100.00
16120;BME280;12670;53.502;10.252;2023-03-25T02:03:22;99572.72;;;9.54;100.00
16120;BME280;12670;53.502;10.252;2023-03-25T02:06:29;99561.53;;;9.49;100.00
16120;BME280;12670;53.502;10.252;2023-03-25T02:09:33;99566.13;;;9.61;100.00
16120;BME280;12670;53.502;10.252;2023-03-25T02:12:37;99564.97;;;9.51;100.00
16120;BME280;12670;53.502;10.252;2023-03-25T02:15:55;99558.13;;;9.63;100.00
16120;BME280;12670;53.502;10.252;2023-03-25T02:19:14;99555.63;;;9.59;100.00
16120;BME280;12670;53.502;10.252;2023-03-25T02:22:39;99537.34;;;9.55;100.00
16120;BME280;12670;53.502;10.252;2023-03-25T02:26:01;99544.09;;;9.76;100.00
16120;BME280;12670;53.502;10.252;2023-03-25T02:29:18;99548.94;;;9.84;100.00
16120;BME280;12670;53.502;10.252;2023-03-25T02:32:38;99547.84;;;9.72;100.00
16120;BME280;12670;53.502;10.252;2023-03-25T02:36:02;99554.72;;;9.45;100.00
16120;BME280;12670;53.502;10.252;2023-03-25T02:39:13;99546.50;;;9.65;100.00
16120;BME280;12670;53.502;10.252;2023-03-25T02:42:24;99544.47;;;9.39;100.00
16120;BME280;12670;53.502;10.252;2023-03-25T02:45:30;99539.59;;;9.47;100.00
16120;BME280;12670;53.502;10.252;2023-03-25T02:48:37;99549.59;;;9.42;100.00
16120;BME280;12670;53.502;10.252;2023-03-25T02:51:45;99541.22;;;9.33;100.00
16120;BME280;12670;53.502;10.252;2023-03-25T02:54:52;99543.84;;;9.49;100.00
16120;BME280;12670;53.502;10.252;2023-03-25T02:58:00;99534.72;;;9.55;100.00
16120;BME280;12670;53.502;10.252;2023-03-25T03:01:05;99536.09;;;9.46;100.00
16120;BME280;12670;53.502;10.252;2023-03-25T03:04:10;99536.09;;;9.62;100.00
16120;BME280;12670;53.502;10.252;2023-03-25T03:07:20;99521.81;;;9.65;100.00
16120;BME280;12670;53.502;10.252;2023-03-25T03:10:29;99533.81;;;9.56;100.00
16120;BME280;12670;53.502;10.252;2023-03-25T03:13:48;99534.19;;;9.64;100.00
16120;BME280;12670;53.502;10.252;2023-03-25T03:16:59;99527.81;;;9.37;100.00
16120;BME280;12670;53.502;10.252;2023-03-25T03:20:12;99523.13;;;9.57;100.00
16120;BME280;12670;53.502;10.252;2023-03-25T03:23:23;99524.81;;;9.58;100.00
16120;BME280;12670;53.502;10.252;2023-03-25T03:26:35;99520.00;;;9.65;100.00
16120;BME280;12670;53.502;10.252;2023-03-25T03:29:45;99510.31;;;9.34;100.00
16120;BME280;12670;53.502;10.252;2023-03-25T03:32:53;99519.53;;;9.43;100.00
16120;BME280;12670;53.502;10.252;2023-03-25T03:36:00;99512.97;;;9.34;100.00
16120;BME280;12670;53.502;10.252;2023-03-25T03:39:10;99518.06;;;9.53;100.00
16120;BME280;12670;53.502;10.252;2023-03-25T03:42:23;99518.41;;;9.47;100.00
16120;BME280;12670;53.502;10.252;2023-03-25T03:45:30;99520.47;;;9.42;100.00
16120;BME280;12670;53.502;10.252;2023-03-25T03:48:37;99523.81;;;9.29;100.00
16120;BME280;12670;53.502;10.252;2023-03-25T03:51:46;99518.72;;;9.26;100.00
16120;BME280;12670;53.502;10.252;2023-03-25T03:54:53;99523.72;;;9.47;100.00
16120;BME280;12670;53.502;10.252;2023-03-25T03:58:01;99530.13;;;9.43;100.00
16120;BME280;12670;53.502;10.252;2023-03-25T04:01:07;99529.69;;;9.34;100.00
16120;BME280;12670;53.502;10.252;2023-03-25T04:04:13;99525.94;;;9.39;100.00
16120;BME280;12670;53.502;10.252;2023-03-25T04:07:18;99521.06;;;9.31;100.00
16120;BME280;12670;53.502;10.252;2023-03-25T04:10:27;99517.91;;;9.24;100.00
16120;BME280;12670;53.502;10.252;2023-03-25T04:13:39;99514.06;;;9.30;100.00
16120;BME280;12670;53.502;10.252;2023-03-25T04:16:43;99514.31;;;9.41;100.00
16120;BME280;12670;53.502;10.252;2023-03-25T04:19:46;99513.66;;;9.22;100.00
16120;BME280;12670;53.502;10.252;2023-03-25T04:22:53;99521.66;;;9.20;100.00
16120;BME280;12670;53.502;10.252;2023-03-25T04:25:57;99517.81;;;9.42;100.00
16120;BME280;12670;53.502;10.252;2023-03-25T04:29:04;99522.97;;;9.29;100.00
16120;BME280;12670;53.502;10.252;2023-03-25T04:32:08;99513.56;;;9.39;100.00
16120;BME280;12670;53.502;10.252;2023-03-25T04:35:10;99525.50;;;9.30;100.00
16120;BME280;12670;53.502;10.252;2023-03-25T04:38:13;99523.53;;;9.18;100.00
16120;BME280;12670;53.502;10.252;2023-03-25T04:41:18;99527.41;;;9.28;100.00
16120;BME280;12670;53.502;10.252;2023-03-25T04:44:22;99528.34;;;9.27;100.00
16120;BME280;12670;53.502;10.252;2023-03-25T04:47:26;99527.38;;;9.13;100.00
16120;BME280;12670;53.502;10.252;2023-03-25T04:50:29;99523.97;;;9.11;100.00
16120;BME280;12670;53.502;10.252;2023-03-25T04:53:32;99526.44;;;9.29;100.00
16120;BME280;12670;53.502;10.252;2023-03-25T04:56:35;99529.34;;;9.25;100.00
16120;BME280;12670;53.502;10.252;2023-03-25T04:59:39;99526.38;;;9.15;100.00
16120;BME280;12670;53.502;10.252;2023-03-25T05:02:42;99523.13;;;9.26;100.00
16120;BME280;12670;53.502;10.252;2023-03-25T05:05:47;99530.03;;;9.28;100.00
16120;BME280;12670;53.502;10.252;2023-03-25T05:08:50;99518.69;;;9.11;100.00
16120;BME280;12670;53.502;10.252;2023-03-25T05:11:52;99523.13;;;9.26;100.00
16120;BME280;12670;53.502;10.252;2023-03-25T05:14:57;99519.97;;;9.19;100.00
16120;BME280;12670;53.502;10.252;2023-03-25T05:18:00;99519.09;;;9.19;100.00
16120;BME280;12670;53.502;10.252;2023-03-25T05:21:03;99522.44;;;9.22;100.00
16120;BME280;12670;53.502;10.252;2023-03-25T05:24:07;99522.28;;;9.10;100.00
16120;BME280;12670;53.502;10.252;2023-03-25T05:27:10;99518.09;;;9.21;100.00
16120;BME280;12670;53.502;10.252;2023-03-25T05:30:14;99512.72;;;9.23;100.00
16120;BME280;12670;53.502;10.252;2023-03-25T05:33:17;99526.19;;;9.18;100.00
16120;BME280;12670;53.502;10.252;2023-03-25T05:36:20;99521.66;;;9.20;100.00
16120;BME280;12670;53.502;10.252;2023-03-25T05:39:25;99519.97;;;9.19;100.00
16120;BME280;12670;53.502;10.252;2023-03-25T05:42:27;99521.41;;;9.25;100.00
16120;BME280;12670;53.502;10.252;2023-03-25T05:45:32;99534.72;;;9.23;100.00
16120;BME280;12670;53.502;10.252;2023-03-25T05:48:36;99531.16;;;9.24;100.00
16120;BME280;12670;53.502;10.252;2023-03-25T05:51:41;99540.19;;;9.20;100.00
16120;BME280;12670;53.502;10.252;2023-03-25T05:54:46;99540.38;;;9.17;100.00
16120;BME280;12670;53.502;10.252;2023-03-25T05:57:52;99538.22;;;9.24;100.00
16120;BME280;12670;53.502;10.252;2023-03-25T06:00:56;99547.13;;;9.23;100.00
16120;BME280;12670;53.502;10.252;2023-03-25T06:03:59;99546.84;;;9.12;100.00
16120;BME280;12670;53.502;10.252;2023-03-25T06:07:05;99551.91;;;9.16;100.00
16120;BME280;12670;53.502;10.252;2023-03-25T06:10:15;99543.97;;;9.16;100.00
16120;BME280;12670;53.502;10.252;2023-03-25T06:13:18;99545.03;;;8.96;100.00
16120;BME280;12670;53.502;10.252;2023-03-25T06:16:24;99541.03;;;9.05;100.00
16120;BME280;12670;53.502;10.252;2023-03-25T06:19:28;99554.59;;;8.99;100.00
16120;BME280;12670;53.502;10.252;2023-03-25T06:22:30;99557.25;;;8.99;100.00
16120;BME280;12670;53.502;10.252;2023-03-25T06:25:34;99553.75;;;8.98;100.00
16120;BME280;12670;53.502;10.252;2023-03-25T06:28:37;99560.06;;;9.12;100.00
16120;BME280;12670;53.502;10.252;2023-03-25T06:31:41;99567.88;;;9.15;100.00
16120;BME280;12670;53.502;10.252;2023-03-25T06:34:44;99565.78;;;9.04;100.00
16120;BME280;12670;53.502;10.252;2023-03-25T06:37:47;99565.28;;;9.13;100.00
16120;BME280;12670;53.502;10.252;2023-03-25T06:40:50;99573.81;;;9.18;100.00
16120;BME280;12670;53.502;10.252;2023-03-25T06:43:53;99567.53;;;9.21;100.00
16120;BME280;12670;53.502;10.252;2023-03-25T06:46:57;99569.47;;;9.17;100.00
16120;BME280;12670;53.502;10.252;2023-03-25T06:50:00;99576.91;;;9.11;100.00
16120;BME280;12670;53.502;10.252;2023-03-25T06:53:03;99557.69;;;9.23;100.00
16120;BME280;12670;53.502;10.252;2023-03-25T06:56:07;99561.47;;;9.34;100.00
16120;BME280;12670;53.502;10.252;2023-03-25T06:59:09;99569.16;;;9.39;100.00
16120;BME280;12670;53.502;10.252;2023-03-25T07:02:14;99568.88;;;9.44;100.00
16120;BME280;12670;53.502;10.252;2023-03-25T07:05:16;99578.28;;;9.49;100.00
16120;BME280;12670;53.502;10.252;2023-03-25T07:08:19;99573.66;;;9.53;100.00
16120;BME280;12670;53.502;10.252;2023-03-25T07:11:25;99576.22;;;9.54;100.00
16120;BME280;12670;53.502;10.252;2023-03-25T07:14:28;99571.19;;;9.66;100.00
16120;BME280;12670;53.502;10.252;2023-03-25T07:17:32;99572.34;;;9.92;100.00
16120;BME280;12670;53.502;10.252;2023-03-25T07:20:35;99567.66;;;9.97;100.00
16120;BME280;12670;53.502;10.252;2023-03-25T07:23:37;99568.31;;;10.00;100.00
16120;BME280;12670;53.502;10.252;2023-03-25T07:26:40;99565.06;;;9.95;100.00
16120;BME280;12670;53.502;10.252;2023-03-25T07:29:43;99578.97;;;9.69;100.00
16120;BME280;12670;53.502;10.252;2023-03-25T07:32:47;99571.44;;;9.77;100.00
16120;BME280;12670;53.502;10.252;2023-03-25T07:35:49;99572.34;;;9.92;100.00
16120;BME280;12670;53.502;10.252;2023-03-25T07:38:52;99568.56;;;9.96;100.00
16120;BME280;12670;53.502;10.252;2023-03-25T07:41:57;99573.09;;;10.09;100.00
16120;BME280;12670;53.502;10.252;2023-03-25T07:45:00;99575.13;;;10.20;100.00
16120;BME280;12670;53.502;10.252;2023-03-25T07:48:04;99584.47;;;9.96;100.00
16120;BME280;12670;53.502;10.252;2023-03-25T07:51:13;99583.88;;;9.91;100.00
16120;BME280;12670;53.502;10.252;2023-03-25T07:54:16;99579.13;;;9.81;100.00
16120;BME280;12670;53.502;10.252;2023-03-25T07:57:21;99588.16;;;9.77;100.00
16120;BME280;12670;53.502;10.252;2023-03-25T08:00:23;99581.50;;;9.86;100.00
16120;BME280;12670;53.502;10.252;2023-03-25T08:03:27;99577.53;;;10.09;100.00
16120;BME280;12670;53.502;10.252;2023-03-25T08:06:30;99579.94;;;9.98;100.00
16120;BME280;12670;53.502;10.252;2023-03-25T08:09:33;99579.75;;;10.01;100.00
16120;BME280;12670;53.502;10.252;2023-03-25T08:12:35;99596.00;;;10.40;100.00
16120;BME280;12670;53.502;10.252;2023-03-25T08:15:38;99597.56;;;10.59;100.00
16120;BME280;12670;53.502;10.252;2023-03-25T08:18:42;99585.25;;;10.72;100.00
16120;BME280;12670;53.502;10.252;2023-03-25T08:21:45;99584.53;;;10.10;100.00
16120;BME280;12670;53.502;10.252;2023-03-25T08:24:48;99586.91;;;10.30;100.00
16120;BME280;12670;53.502;10.252;2023-03-25T08:27:51;99596.09;;;10.09;100.00
16120;BME280;12670;53.502;10.252;2023-03-25T08:30:54;99593.19;;;9.98;100.00
16120;BME280;12670;53.502;10.252;2023-03-25T08:33:58;99587.78;;;10.15;100.00
16120;BME280;12670;53.502;10.252;2023-03-25T08:37:01;99589.97;;;10.38;100.00
16120;BME280;12670;53.502;10.252;2023-03-25T08:40:04;99586.59;;;10.65;100.00
16120;BME280;12670;53.502;10.252;2023-03-25T08:43:09;99590.69;;;10.85;100.00
16120;BME280;12670;53.502;10.252;2023-03-25T08:46:12;99579.59;;;10.64;100.00
16120;BME280;12670;53.502;10.252;2023-03-25T08:49:16;99591.78;;;10.52;100.00
16120;BME280;12670;53.502;10.252;2023-03-25T08:52:19;99578.78;;;10.48;100.00
16120;BME280;12670;53.502;10.252;2023-03-25T08:55:22;99580.81;;;10.58;100.00
16120;BME280;12670;53.502;10.252;2023-03-25T08:58:25;99580.00;;;10.86;99.72
16120;BME280;12670;53.502;10.252;2023-03-25T09:01:28;99575.81;;;10.82;98.50
16120;BME280;12670;53.502;10.252;2023-03-25T09:04:32;99571.84;;;11.04;98.80
16120;BME280;12670;53.502;10.252;2023-03-25T09:07:35;99575.25;;;10.91;95.95
16120;BME280;12670;53.502;10.252;2023-03-25T09:10:38;99581.41;;;10.33;98.04
16120;BME280;12670;53.502;10.252;2023-03-25T09:13:41;99585.66;;;10.06;100.00
16120;BME280;12670;53.502;10.252;2023-03-25T09:16:43;99581.41;;;9.87;100.00
16120;BME280;12670;53.502;10.252;2023-03-25T09:19:47;99582.25;;;9.88;100.00
16120;BME280;12670;53.502;10.252;2023-03-25T09:22:52;99582.97;;;9.76;100.00
16120;BME280;12670;53.502;10.252;2023-03-25T09:26:00;99614.91;;;9.88;100.00
16120;BME280;12670;53.502;10.252;2023-03-25T09:29:04;99628.75;;;9.46;100.00
16120;BME280;12670;53.502;10.252;2023-03-25T09:32:06;99601.38;;;8.98;100.00
16120;BME280;12670;53.502;10.252;2023-03-25T09:35:11;99617.63;;;8.91;100.00
16120;BME280;12670;53.502;10.252;2023-03-25T09:38:13;99619.34;;;8.92;100.00
16120;BME280;12670;53.502;10.252;2023-03-25T09:41:25;99628.16;;;8.75;100.00
16120;BME280;12670;53.502;10.252;2023-03-25T09:44:36;99628.09;;;8.76;100.00
16120;BME280;12670;53.502;10.252;2023-03-25T09:47:47;99619.09;;;8.63;100.00
16120;BME280;12670;53.502;10.252;2023-03-25T09:51:00;99632.13;;;8.49;100.00
16120;BME280;12670;53.502;10.252;2023-03-25T09:54:15;99637.97;;;8.55;100.00
16120;BME280;12670;53.502;10.252;2023-03-25T09:57:22;99634.47;;;8.38;100.00
16120;BME280;12670;53.502;10.252;2023-03-25T10:00:27;99618.47;;;8.41;100.00
16120;BME280;12670;53.502;10.252;2023-03-25T10:03:34;99623.22;;;8.51;100.00
16120;BME280;12670;53.502;10.252;2023-03-25T10:06:42;99630.56;;;8.27;100.00
16120;BME280;12670;53.502;10.252;2023-03-25T10:09:53;99625.47;;;8.42;100.00
16120;BME280;12670;53.502;10.252;2023-03-25T10:13:08;99615.34;;;8.50;100.00
16120;BME280;12670;53.502;10.252;2023-03-25T10:16:23;99627.25;;;8.41;100.00
16120;BME280;12670;53.502;10.252;2023-03-25T10:19:40;99621.84;;;8.77;100.00
16120;BME280;12670;53.502;10.252;2023-03-25T10:22:58;99612.25;;;9.25;100.00
16120;BME280;12670;53.502;10.252;2023-03-25T10:26:09;99611.69;;;9.52;100.00
16120;BME280;12670;53.502;10.252;2023-03-25T10:29:16;99604.69;;;10.12;100.00
16120;BME280;12670;53.502;10.252;2023-03-25T10:32:30;99600.66;;;9.91;100.00
16120;BME280;12670;53.502;10.252;2023-03-25T10:35:38;99599.56;;;10.25;100.00
16120;BME280;12670;53.502;10.252;2023-03-25T10:38:45;99614.63;;;11.55;100.00
16120;BME280;12670;53.502;10.252;2023-03-25T10:41:52;99609.34;;;11.40;100.00
16120;BME280;12670;53.502;10.252;2023-03-25T10:44:56;99608.28;;;11.98;100.00
16120;BME280;12670;53.502;10.252;2023-03-25T10:48:04;99605.53;;;12.00;100.00
16120;BME280;12670;53.502;10.252;2023-03-25T10:51:10;99613.31;;;11.62;100.00
16120;BME280;12670;53.502;10.252;2023-03-25T10:54:15;99609.94;;;11.17;100.00
16120;BME280;12670;53.502;10.252;2023-03-25T10:57:21;99614.75;;;10.82;100.00
16120;BME280;12670;53.502;10.252;2023-03-25T11:00:26;99595.34;;;11.65;100.00
16120;BME280;12670;53.502;10.252;2023-03-25T11:03:32;99583.63;;;11.96;100.00
16120;BME280;12670;53.502;10.252;2023-03-25T11:06:37;99592.34;;;11.57;100.00
16120;BME280;12670;53.502;10.252;2023-03-25T11:09:42;99617.28;;;11.55;100.00
16120;BME280;12670;53.502;10.252;2023-03-25T11:12:45;99607.06;;;10.77;100.00
16120;BME280;12670;53.502;10.252;2023-03-25T11:15:51;99613.44;;;10.75;100.00
16120;BME280;12670;53.502;10.252;2023-03-25T11:18:55;99608.38;;;10.56;100.00
16120;BME280;12670;53.502;10.252;2023-03-25T11:22:07;99607.91;;;10.78;100.00
16120;BME280;12670;53.502;10.252;2023-03-25T11:25:18;99614.00;;;10.35;100.00
16120;BME280;12670;53.502;10.252;2023-03-25T11:28:34;99612.41;;;10.01;100.00
16120;BME280;12670;53.502;10.252;2023-03-25T11:31:40;99622.78;;;9.74;100.00
16120;BME280;12670;53.502;10.252;2023-03-25T11:34:46;99621.69;;;9.63;100.00
16120;BME280;12670;53.502;10.252;2023-03-25T11:37:55;99632.31;;;9.29;100.00
16120;BME280;12670;53.502;10.252;2023-03-25T11:41:00;99636.38;;;9.19;100.00
16120;BME280;12670;53.502;10.252;2023-03-25T11:44:04;99643.41;;;8.87;100.00
16120;BME280;12670;53.502;10.252;2023-03-25T11:47:08;99649.47;;;8.72;100.00
16120;BME280;12670;53.502;10.252;2023-03-25T11:50:20;99645.88;;;8.55;100.00
16120;BME280;12670;53.502;10.252;2023-03-25T11:53:25;99652.03;;;8.73;100.00
16120;BME280;12670;53.502;10.252;2023-03-25T11:56:33;99651.16;;;8.73;100.00
16120;BME280;12670;53.502;10.252;2023-03-25T11:59:41;99644.56;;;8.81;100.00
16120;BME280;12670;53.502;10.252;2023-03-25T12:02:44;99636.34;;;8.70;100.00
16120;BME280;12670;53.502;10.252;2023-03-25T12:05:56;99633.22;;;8.79;100.00
16120;BME280;12670;53.502;10.252;2023-03-25T12:08:59;99627.34;;;9.23;100.00
16120;BME280;12670;53.502;10.252;2023-03-25T12:12:35;99613.09;;;9.26;100.00
16120;BME280;12670;53.502;10.252;2023-03-25T12:15:49;99609.88;;;8.88;100.00
16120;BME280;12670;53.502;10.252;2023-03-25T12:19:04;99609.53;;;9.74;100.00
16120;BME280;12670;53.502;10.252;2023-03-25T12:22:21;99604.50;;;9.85;100.00
16120;BME280;12670;53.502;10.252;2023-03-25T12:25:37;99599.25;;;10.00;100.00
16120;BME280;12670;53.502;10.252;2023-03-25T12:32:19;99586.81;;;10.16;100.00
16120;BME280;12670;53.502;10.252;2023-03-25T12:35:30;99586.56;;;10.51;100.00
16120;BME280;12670;53.502;10.252;2023-03-25T12:38:44;99572.94;;;11.84;100.00
16120;BME280;12670;53.502;10.252;2023-03-25T12:41:59;99570.59;;;11.65;100.00
16120;BME280;12670;53.502;10.252;2023-03-25T12:45:23;99562.78;;;11.76;100.00
16120;BME280;12670;53.502;10.252;2023-03-25T12:48:39;99568.00;;;11.36;100.00
16120;BME280;12670;53.502;10.252;2023-03-25T12:51:52;99572.59;;;10.91;100.00
16120;BME280;12670;53.502;10.252;2023-03-25T12:55:14;99575.50;;;10.73;100.00
16120;BME280;12670;53.502;10.252;2023-03-25T12:58:34;99578.84;;;10.90;100.00
16120;BME280;12670;53.502;10.252;2023-03-25T13:01:47;99583.59;;;10.85;100.00
16120;BME280;12670;53.502;10.252;2023-03-25T13:05:10;99574.09;;;10.07;100.00
16120;BME280;12670;53.502;10.252;2023-03-25T13:08:20;99589.16;;;9.91;100.00
16120;BME280;12670;53.502;10.252;2023-03-25T13:11:30;99573.28;;;9.91;100.00
16120;BME280;12670;53.502;10.252;2023-03-25T13:14:40;99577.81;;;9.88;100.00
16120;BME280;12670;53.502;10.252;2023-03-25T13:17:48;99574.75;;;9.80;100.00
16120;BME280;12670;53.502;10.252;2023-03-25T13:20:59;99583.22;;;10.17;100.00
16120;BME280;12670;53.502;10.252;2023-03-25T13:24:16;99583.00;;;10.06;100.00
16120;BME280;12670;53.502;10.252;2023-03-25T13:27:21;99571.31;;;9.94;100.00
16120;BME280;12670;53.502;10.252;2023-03-25T13:30:28;99577.59;;;10.23;100.00
16120;BME280;12670;53.502;10.252;2023-03-25T13:33:36;99572.69;;;10.31;100.00
16120;BME280;12670;53.502;10.252;2023-03-25T13:36:43;99573.34;;;10.79;100.00
16120;BME280;12670;53.502;10.252;2023-03-25T13:39:55;99571.41;;;10.53;100.00
16120;BME280;12670;53.502;10.252;2023-03-25T13:43:05;99570.88;;;11.05;100.00
16120;BME280;12670;53.502;10.252;2023-03-25T13:46:11;99568.59;;;10.70;100.00
16120;BME280;12670;53.502;10.252;2023-03-25T13:49:20;99564.50;;;10.20;100.00
16120;BME280;12670;53.502;10.252;2023-03-25T13:52:25;99561.06;;;10.34;100.00
16120;BME280;12670;53.502;10.252;2023-03-25T13:55:34;99558.44;;;10.48;100.00
16120;BME280;12670;53.502;10.252;2023-03-25T13:58:50;99556.72;;;10.47;100.00
16120;BME280;12670;53.502;10.252;2023-03-25T14:02:22;99564.22;;;10.55;100.00
16120;BME280;12670;53.502;10.252;2023-03-25T14:06:03;99569.72;;;10.22;100.00
16120;BME280;12670;53.502;10.252;2023-03-25T14:12:48;99567.00;;;10.07;100.00
16120;BME280;12670;53.502;10.252;2023-03-25T14:15:56;99575.81;;;10.08;100.00
16120;BME280;12670;53.502;10.252;2023-03-25T14:19:02;99581.81;;;9.96;100.00
16120;BME280;12670;53.502;10.252;2023-03-25T14:22:12;99587.56;;;9.72;100.00
16120;BME280;12670;53.502;10.252;2023-03-25T14:25:19;99589.72;;;9.81;100.00
16120;BME280;12670;53.502;10.252;2023-03-25T14:28:33;99579.81;;;9.69;100.00
16120;BME280;12670;53.502;10.252;2023-03-25T14:31:37;99576.88;;;9.89;100.00
16120;BME280;12670;53.502;10.252;2023-03-25T14:34:40;99581.97;;;9.47;100.00
16120;BME280;12670;53.502;10.252;2023-03-25T14:37:44;99579.72;;;8.74;100.00
16120;BME280;12670;53.502;10.252;2023-03-25T14:40:49;99581.75;;;8.69;100.00
16120;BME280;12670;53.502;10.252;2023-03-25T14:44:18;99581.38;;;8.42;100.00
16120;BME280;12670;53.502;10.252;2023-03-25T14:47:30;99589.75;;;7.62;100.00
16120;BME280;12670;53.502;10.252;2023-03-25T14:50:35;99596.34;;;7.71;100.00
16120;BME280;12670;53.502;10.252;2023-03-25T14:53:40;99608.53;;;7.92;100.00
16120;BME280;12670;53.502;10.252;2023-03-25T14:56:54;99603.97;;;8.13;100.00
16120;BME280;12670;53.502;10.252;2023-03-25T15:00:00;99617.97;;;8.15;100.00
16120;BME280;12670;53.502;10.252;2023-03-25T15:03:11;99608.06;;;8.01;100.00
16120;BME280;12670;53.502;10.252;2023-03-25T15:06:16;99600.84;;;8.05;100.00
16120;BME280;12670;53.502;10.252;2023-03-25T15:09:21;99600.94;;;8.04;100.00
16120;BME280;12670;53.502;10.252;2023-03-25T15:12:24;99584.38;;;8.17;100.00
16120;BME280;12670;53.502;10.252;2023-03-25T15:15:33;99592.97;;;8.40;100.00
16120;BME280;12670;53.502;10.252;2023-03-25T15:18:59;99584.41;;;8.69;100.00
16120;BME280;12670;53.502;10.252;2023-03-25T15:22:21;99587.69;;;8.90;100.00
16120;BME280;12670;53.502;10.252;2023-03-25T15:25:25;99589.78;;;8.84;100.00
16120;BME280;12670;53.502;10.252;2023-03-25T15:28:38;99590.31;;;8.57;100.00
16120;BME280;12670;53.502;10.252;2023-03-25T15:31:51;99589.97;;;8.80;100.00
16120;BME280;12670;53.502;10.252;2023-03-25T15:38:48;99590.31;;;8.74;100.00
16120;BME280;12670;53.502;10.252;2023-03-25T15:42:24;99582.00;;;8.98;100.00
16120;BME280;12670;53.502;10.252;2023-03-25T15:46:04;99583.00;;;8.95;100.00
16120;BME280;12670;53.502;10.252;2023-03-25T15:49:28;99578.94;;;9.05;100.00
16120;BME280;12670;53.502;10.252;2023-03-25T15:52:59;99572.09;;;9.01;100.00
16120;BME280;12670;53.502;10.252;2023-03-25T15:56:06;99554.88;;;9.10;100.00
16120;BME280;12670;53.502;10.252;2023-03-25T15:59:23;99549.75;;;9.07;100.00
16120;BME280;12670;53.502;10.252;2023-03-25T16:02:33;99543.84;;;9.02;100.00
16120;BME280;12670;53.502;10.252;2023-03-25T16:05:38;99540.09;;;9.06;100.00
16120;BME280;12670;53.502;10.252;2023-03-25T16:08:47;99527.53;;;8.94;100.00
16120;BME280;12670;53.502;10.252;2023-03-25T16:11:51;99534.03;;;9.20;100.00
16120;BME280;12670;53.502;10.252;2023-03-25T16:14:55;99545.00;;;9.45;100.00
16120;BME280;12670;53.502;10.252;2023-03-25T16:17:59;99549.34;;;9.46;100.00
16120;BME280;12670;53.502;10.252;2023-03-25T16:21:03;99545.25;;;9.41;100.00
16120;BME280;12670;53.502;10.252;2023-03-25T16:24:10;99528.41;;;9.26;100.00
16120;BME280;12670;53.502;10.252;2023-03-25T16:27:21;99515.63;;;9.50;100.00
16120;BME280;12670;53.502;10.252;2023-03-25T16:30:27;99512.03;;;9.51;100.00